Time;durP1;ratioP1;P1;durP2;ratioP2;P2;SDS_P1;SDS_P2;PMS_P1;PMS_P2;Temp;Humidity;BMP_temperature;BMP_pressure;BME280_temperature;BME280_humidity;BME280_pressure;Samples;Min_cycle;Max_cycle;Signal;HPM_P1;HPM_P2
2022/02/08 00:00:32;;;;;;;36.45;23.15;;;;;;;;;;2107172;28;20082;-59
2022/02/08 00:01:37;;;;;;;34.80;19.63;;;;;;;;;;2106643;28;20478;-59
2022/02/08 00:02:43;;;;;;;38.22;24.05;;;;;;;;;;2111839;28;20054;-59
2022/02/08 00:03:44;;;;;;;37.65;22.42;;;;;;;;;;2106912;28;20127;-59
2022/02/08 00:04:45;;;;;;;38.40;21.07;;;;;;;;;;2109113;28;20044;-45
2022/02/08 00:05:55;;;;;;;31.52;21.98;;;;;;;;;;2111972;28;20063;-45
2022/02/08 00:07:00;;;;;;;35.75;22.92;;;;;;;;;;2115338;28;20763;-45
2022/02/08 00:08:02;;;;;;;31.88;21.02;;;;;;;;;;2112623;28;20048;-44
2022/02/08 00:09:03;;;;;;;30.33;20.95;;;;;;;;;;2115048;28;20079;-45
2022/02/08 00:10:05;;;;;;;26.25;16.00;;;;;;;;;;2106967;28;20044;-45
2022/02/08 00:11:06;;;;;;;;;;;;;;;;;;2110814;28;20596;-59
2022/02/08 00:12:08;;;;;;;31.15;19.55;;;;;;;;;;2115208;28;19950;-59
2022/02/08 00:13:09;;;;;;;30.83;18.52;;;;;;;;;;2115784;28;20123;-59
2022/02/08 00:14:10;;;;;;;30.70;19.88;;;;;;;;;;2108161;28;20082;-45
2022/02/08 00:15:12;;;;;;;27.98;16.27;;;;;;;;;;2106798;28;20055;-45
2022/02/08 00:16:13;;;;;;;27.98;15.25;;;;;;;;;;2108818;28;20050;-44
2022/02/08 00:17:14;;;;;;;25.73;16.90;;;;;;;;;;2107483;28;20493;-44
2022/02/08 00:18:15;;;;;;;23.83;17.23;;;;;;;;;;2106932;28;20168;-46
2022/02/08 00:19:16;;;;;;;23.55;15.13;;;;;;;;;;2109813;28;20124;-59
2022/02/08 00:20:18;;;;;;;22.60;13.45;;;;;;;;;;2114470;28;20047;-47
2022/02/08 00:21:19;;;;;;;21.67;14.02;;;;;;;;;;2115150;28;20513;-45
2022/02/08 00:22:20;;;;;;;16.77;11.77;;;;;;;;;;2111501;28;20039;-44
2022/02/08 00:23:21;;;;;;;18.25;11.55;;;;;;;;;;2106852;28;20140;-46
2022/02/08 00:24:22;;;;;;;17.52;11.10;;;;;;;;;;2106506;28;20081;-45
2022/02/08 00:25:24;;;;;;;15.55;10.13;;;;;;;;;;2109962;28;20055;-45
2022/02/08 00:26:25;;;;;;;15.68;10.77;;;;;;;;;;2115111;28;20043;-46
2022/02/08 00:27:26;;;;;;;15.27;10.10;;;;;;;;;;2112544;28;20091;-45
2022/02/08 00:28:27;;;;;;;12.93;8.32;;;;;;;;;;2111986;28;20052;-45
2022/02/08 00:29:28;;;;;;;14.15;9.82;;;;;;;;;;2115285;28;20067;-45
2022/02/08 00:30:29;;;;;;;14.30;9.90;;;;;;;;;;2113302;28;20046;-44
2022/02/08 00:31:30;;;;;;;16.65;9.43;;;;;;;;;;2108149;28;20139;-44
2022/02/08 00:32:31;;;;;;;16.08;9.30;;;;;;;;;;2107083;28;20686;-45
2022/02/08 00:33:32;;;;;;;16.45;9.80;;;;;;;;;;2109544;28;20071;-46
2022/02/08 00:34:34;;;;;;;14.80;9.32;;;;;;;;;;2114840;28;20505;-49
2022/02/08 00:35:34;;;;;;;11.60;8.07;;;;;;;;;;2115196;28;20071;-45
2022/02/08 00:36:36;;;;;;;14.57;9.88;;;;;;;;;;2111936;28;20067;-45
2022/02/08 00:37:37;;;;;;;14.90;10.27;;;;;;;;;;2115119;28;20067;-45
2022/02/08 00:38:39;;;;;;;13.63;8.23;;;;;;;;;;2114940;28;20051;-45
2022/02/08 00:39:40;;;;;;;15.23;8.70;;;;;;;;;;2111253;28;20042;-59
2022/02/08 00:40:43;;;;;;;18.00;9.57;;;;;;;;;;2115083;28;20496;-59
2022/02/08 00:41:44;;;;;;;14.48;9.65;;;;;;;;;;2113837;28;20046;-59
2022/02/08 00:42:45;;;;;;;14.02;8.45;;;;;;;;;;2113278;28;20086;-58
2022/02/08 00:43:51;;;;;;;11.80;9.07;;;;;;;;;;2115150;28;20100;-58
2022/02/08 00:44:59;;;;;;;15.20;10.40;;;;;;;;;;2111050;28;20485;-59
2022/02/08 00:46:04;;;;;;;14.15;9.25;;;;;;;;;;2106592;28;20127;-58
2022/02/08 00:48:29;;;;;;;17.48;11.20;;;;;;;;;;2107207;28;20079;-59
2022/02/08 00:49:38;;;;;;;14.82;10.68;;;;;;;;;;2107147;28;20333;-59
2022/02/08 00:50:41;;;;;;;14.95;9.40;;;;;;;;;;2110020;28;20134;-59
2022/02/08 00:51:45;;;;;;;14.95;9.80;;;;;;;;;;2115184;28;20134;-44
2022/02/08 00:52:46;;;;;;;16.98;11.07;;;;;;;;;;2115060;28;20051;-45
2022/02/08 00:53:47;;;;;;;17.38;9.70;;;;;;;;;;2112254;28;20134;-60
2022/02/08 00:54:50;;;;;;;16.35;10.48;;;;;;;;;;2114980;28;20146;-60
2022/02/08 00:55:50;;;;;;;16.30;10.88;;;;;;;;;;2113068;28;20135;-60
2022/02/08 00:56:52;;;;;;;13.37;9.10;;;;;;;;;;2112592;28;20512;-59
2022/02/08 00:57:53;;;;;;;14.70;10.63;;;;;;;;;;2115061;28;20124;-59
2022/02/08 00:58:54;;;;;;;15.45;11.38;;;;;;;;;;2113150;28;20446;-59
2022/02/08 00:59:55;;;;;;;14.70;9.20;;;;;;;;;;2113779;28;20363;-59
2022/02/08 01:00:57;;;;;;;15.57;10.30;;;;;;;;;;2113620;28;20100;-59
2022/02/08 01:01:59;;;;;;;14.02;9.57;;;;;;;;;;2109859;28;20050;-58
2022/02/08 01:03:01;;;;;;;14.03;7.47;;;;;;;;;;2115059;28;20074;-59
2022/02/08 01:04:02;;;;;;;13.18;8.77;;;;;;;;;;2114925;28;20679;-59
2022/02/08 01:05:06;;;;;;;13.30;7.70;;;;;;;;;;2109757;28;20496;-59
2022/02/08 01:06:08;;;;;;;14.43;9.05;;;;;;;;;;2114670;28;20138;-59
2022/02/08 01:07:10;;;;;;;15.63;8.18;;;;;;;;;;2115658;28;20055;-58
2022/02/08 01:08:11;;;;;;;;;;;;;;;;;;2107722;28;20131;-59
2022/02/08 01:09:16;;;;;;;12.95;6.30;;;;;;;;;;2105521;28;19969;-58
2022/02/08 01:10:19;;;;;;;11.57;7.47;;;;;;;;;;2109356;28;20174;-59
2022/02/08 01:11:22;;;;;;;10.82;5.93;;;;;;;;;;2114254;28;20132;-59
2022/02/08 01:12:23;;;;;;;11.48;8.13;;;;;;;;;;2114798;28;20484;-59
2022/02/08 01:13:25;;;;;;;10.82;6.40;;;;;;;;;;2112835;28;20485;-59
2022/02/08 01:14:25;;;;;;;12.55;7.10;;;;;;;;;;2115175;28;20461;-44
2022/02/08 01:15:27;;;;;;;9.25;5.70;;;;;;;;;;2114866;28;20050;-44
2022/02/08 01:16:29;;;;;;;10.95;6.88;;;;;;;;;;2108410;28;20126;-47
2022/02/08 01:17:30;;;;;;;;;;;;;;;;;;2106931;28;20126;-44
2022/02/08 01:18:34;;;;;;;12.20;7.05;;;;;;;;;;2108441;28;20058;-45
2022/02/08 01:19:39;;;;;;;12.38;7.78;;;;;;;;;;2113134;28;20134;-44
2022/02/08 01:20:40;;;;;;;12.40;6.55;;;;;;;;;;2114196;28;20059;-44
2022/02/08 01:21:41;;;;;;;13.23;7.30;;;;;;;;;;2108052;28;20134;-44
2022/02/08 01:22:42;;;;;;;11.93;6.72;;;;;;;;;;2114533;28;20134;-48
2022/02/08 01:24:02;;;;;;;13.55;7.90;;;;;;;;;;2114767;28;20108;-45
2022/02/08 01:25:06;;;;;;;11.32;6.70;;;;;;;;;;2111153;28;20449;-44
2022/02/08 01:26:12;;;;;;;13.23;7.90;;;;;;;;;;2115066;28;20050;-44
2022/02/08 01:27:14;;;;;;;12.02;8.32;;;;;;;;;;2113114;28;20048;-45
2022/02/08 01:28:23;;;;;;;11.45;7.80;;;;;;;;;;2106536;28;20515;-47
2022/02/08 01:29:35;;;;;;;13.20;7.82;;;;;;;;;;2106457;28;20123;-45
2022/02/08 01:30:46;;;;;;;11.75;7.40;;;;;;;;;;2111419;28;20134;-45
2022/02/08 01:31:49;;;;;;;12.05;8.32;;;;;;;;;;2114915;28;20130;-45
2022/02/08 01:33:11;;;;;;;13.40;8.50;;;;;;;;;;2111550;28;20527;-45
2022/02/08 01:34:28;;;;;;;11.07;7.43;;;;;;;;;;2114849;28;20123;-44
2022/02/08 01:35:46;;;;;;;13.18;6.75;;;;;;;;;;2112925;28;20040;-44
2022/02/08 01:37:02;;;;;;;12.88;7.75;;;;;;;;;;2106293;28;20117;-44
2022/02/08 01:38:08;;;;;;;11.93;6.20;;;;;;;;;;2107131;28;20075;-45
2022/02/08 01:39:16;;;;;;;13.25;7.78;;;;;;;;;;2107176;28;20054;-45
2022/02/08 01:40:27;;;;;;;9.77;6.53;;;;;;;;;;2106733;28;20135;-44
2022/02/08 01:41:41;;;;;;;9.85;6.10;;;;;;;;;;2112187;28;20126;-44
2022/02/08 01:42:51;;;;;;;12.68;6.22;;;;;;;;;;2114910;28;20325;-57
2022/02/08 01:45:35;;;;;;;8.98;6.13;;;;;;;;;;2129077;22;20079;-46
2022/02/08 01:46:49;;;;;;;8.80;5.50;;;;;;;;;;2078880;28;20088;-46
2022/02/08 01:48:03;;;;;;;8.65;5.43;;;;;;;;;;2073175;28;20480;-46
2022/02/08 01:49:14;;;;;;;11.15;6.18;;;;;;;;;;2074532;28;20054;-46
2022/02/08 01:50:17;;;;;;;10.98;5.43;;;;;;;;;;2080993;28;20128;-46
2022/02/08 01:51:19;;;;;;;10.13;5.65;;;;;;;;;;2081290;28;20053;-45
2022/02/08 01:52:20;;;;;;;8.75;5.07;;;;;;;;;;2079030;28;20149;-46
2022/02/08 01:53:21;;;;;;;9.38;5.70;;;;;;;;;;2081407;28;20099;-59
2022/02/08 01:54:22;;;;;;;9.90;5.97;;;;;;;;;;2081472;28;20124;-60
2022/02/08 01:55:24;;;;;;;10.17;5.03;;;;;;;;;;2080397;28;20522;-60
2022/02/08 01:56:46;;;;;;;12.27;6.70;;;;;;;;;;2081267;28;20129;-60
2022/02/08 01:57:47;;;;;;;10.23;5.32;;;;;;;;;;2079506;28;20129;-46
2022/02/08 01:58:48;;;;;;;10.93;6.65;;;;;;;;;;2080095;28;20052;-46
2022/02/08 01:59:50;;;;;;;10.20;6.70;;;;;;;;;;2081321;28;20056;-46
2022/02/08 02:00:50;;;;;;;10.15;5.32;;;;;;;;;;2078768;28;20130;-46
2022/02/08 02:01:52;;;;;;;9.60;6.10;;;;;;;;;;2081064;28;20050;-47
2022/02/08 02:02:53;;;;;;;8.20;5.32;;;;;;;;;;2081414;28;20073;-46
2022/02/08 02:03:54;;;;;;;7.90;5.53;;;;;;;;;;2080125;28;20045;-46
2022/02/08 02:05:12;;;;;;;7.00;4.22;;;;;;;;;;2081364;28;20129;-46
2022/02/08 02:06:13;;;;;;;8.23;5.30;;;;;;;;;;2080374;28;20050;-46
2022/02/08 02:07:15;;;;;;;7.93;4.43;;;;;;;;;;2081077;28;20410;-46
2022/02/08 02:08:18;;;;;;;8.77;5.00;;;;;;;;;;2081137;28;20138;-46
2022/02/08 02:09:19;;;;;;;7.27;5.10;;;;;;;;;;2078879;28;20057;-48
2022/02/08 02:10:20;;;;;;;7.97;4.72;;;;;;;;;;2081134;28;20141;-46
2022/02/08 02:11:22;;;;;;;8.75;5.53;;;;;;;;;;2081148;28;20510;-46
2022/02/08 02:12:23;;;;;;;7.63;5.15;;;;;;;;;;2078814;28;20137;-44
2022/02/08 02:13:38;;;;;;;7.95;5.03;;;;;;;;;;2081414;28;20564;-59
2022/02/08 02:14:40;;;;;;;8.15;5.07;;;;;;;;;;2079399;28;20084;-59
2022/02/08 02:15:40;;;;;;;7.65;5.25;;;;;;;;;;2080083;28;20069;-59
2022/02/08 02:16:52;;;;;;;8.23;4.88;;;;;;;;;;2081189;28;20418;-59
2022/02/08 02:17:54;;;;;;;8.27;5.18;;;;;;;;;;2076727;28;20045;-44
2022/02/08 02:18:55;;;;;;;10.27;6.30;;;;;;;;;;2081353;28;20072;-44
2022/02/08 02:19:56;;;;;;;6.70;4.05;;;;;;;;;;2081234;28;20049;-45
2022/02/08 02:20:57;;;;;;;9.82;6.32;;;;;;;;;;2078703;28;20152;-44
2022/02/08 02:21:59;;;;;;;7.65;4.68;;;;;;;;;;2081097;28;20053;-47
2022/02/08 02:23:00;;;;;;;9.23;5.80;;;;;;;;;;2080907;28;20128;-44
2022/02/08 02:24:02;;;;;;;9.20;5.00;;;;;;;;;;2079790;28;20128;-45
2022/02/08 02:25:04;;;;;;;10.32;6.22;;;;;;;;;;2081044;28;20053;-44
2022/02/08 02:26:05;;;;;;;8.63;5.45;;;;;;;;;;2080432;28;20041;-57
2022/02/08 02:27:06;;;;;;;9.07;4.47;;;;;;;;;;2080974;28;20049;-58
2022/02/08 02:28:07;;;;;;;9.65;6.30;;;;;;;;;;2081099;28;20165;-57
2022/02/08 02:29:11;;;;;;;9.63;5.40;;;;;;;;;;2080174;28;20439;-58
2022/02/08 02:30:13;;;;;;;9.43;5.65;;;;;;;;;;2080997;28;20136;-57
2022/02/08 02:31:16;;;;;;;10.25;6.10;;;;;;;;;;2081221;28;20140;-58
2022/02/08 02:32:17;;;;;;;9.68;5.55;;;;;;;;;;2079911;28;20073;-57
2022/02/08 02:33:18;;;;;;;10.00;5.03;;;;;;;;;;2081316;28;20045;-45
2022/02/08 02:34:20;;;;;;;12.70;6.50;;;;;;;;;;2079723;28;20434;-57
2022/02/08 02:35:21;;;;;;;10.35;6.35;;;;;;;;;;2079791;28;20598;-57
2022/02/08 02:36:31;;;;;;;11.23;6.47;;;;;;;;;;2080695;28;20550;-57
2022/02/08 02:37:31;;;;;;;8.65;5.88;;;;;;;;;;2078752;28;20092;-57
2022/02/08 02:38:33;;;;;;;10.90;5.25;;;;;;;;;;2080879;28;20049;-57
2022/02/08 02:39:34;;;;;;;12.02;6.85;;;;;;;;;;2080974;28;20533;-57
2022/02/08 02:40:36;;;;;;;8.20;5.00;;;;;;;;;;2079962;28;20081;-57
2022/02/08 02:41:37;;;;;;;;;;;;;;;;;;2081597;28;20445;-57
2022/02/08 02:42:38;;;;;;;10.02;5.32;;;;;;;;;;2081060;28;19925;-57
2022/02/08 02:43:40;;;;;;;11.18;6.10;;;;;;;;;;2078827;28;20081;-44
2022/02/08 02:44:42;;;;;;;12.93;7.07;;;;;;;;;;2080893;28;20046;-44
2022/02/08 02:45:43;;;;;;;10.43;6.55;;;;;;;;;;2078874;28;20128;-44
2022/02/08 02:46:44;;;;;;;11.23;5.93;;;;;;;;;;2080545;28;20107;-44
2022/02/08 02:47:45;;;;;;;13.32;8.00;;;;;;;;;;2081081;28;20077;-43
2022/02/08 02:48:47;;;;;;;12.02;5.32;;;;;;;;;;2080005;28;20107;-44
2022/02/08 02:49:48;;;;;;;10.57;7.15;;;;;;;;;;2079798;28;20079;-44
2022/02/08 02:50:52;;;;;;;9.95;6.47;;;;;;;;;;2080788;28;20049;-44
2022/02/08 02:51:54;;;;;;;10.20;6.43;;;;;;;;;;2078745;28;20081;-44
2022/02/08 02:52:54;;;;;;;9.32;5.63;;;;;;;;;;2081039;28;20045;-43
2022/02/08 02:53:56;;;;;;;8.65;5.50;;;;;;;;;;2081298;28;20502;-57
2022/02/08 02:54:57;;;;;;;11.98;7.32;;;;;;;;;;2079907;28;20133;-57
2022/02/08 02:55:58;;;;;;;9.05;5.15;;;;;;;;;;2080860;28;20481;-57
2022/02/08 02:57:01;;;;;;;9.83;6.57;;;;;;;;;;2080473;28;20049;-57
2022/02/08 02:58:03;;;;;;;9.77;6.22;;;;;;;;;;2079448;28;20377;-57
2022/02/08 02:59:05;;;;;;;12.00;6.50;;;;;;;;;;2080889;28;20077;-57
2022/02/08 03:00:10;;;;;;;;;;;;;;;;;;2079171;28;20129;-58
2022/02/08 03:01:22;;;;;;;10.50;4.82;;;;;;;;;;2080128;28;20318;-44
2022/02/08 03:02:35;;;;;;;;;;;;;;;;;;2081629;28;20132;-57
2022/02/08 03:03:49;;;;;;;7.40;4.00;;;;;;;;;;2080190;28;20011;-57
2022/02/08 03:04:56;;;;;;;9.32;5.25;;;;;;;;;;2080882;28;20526;-57
2022/02/08 03:17:28;;;;;;;6.75;4.60;;;;;;;;;;2078457;28;20474;-57
2022/02/08 03:18:34;;;;;;;8.35;4.82;;;;;;;;;;2079594;28;20056;-45
2022/02/08 03:19:34;;;;;;;9.57;5.40;;;;;;;;;;2079926;28;20128;-46
2022/02/08 03:20:36;;;;;;;11.93;6.53;;;;;;;;;;2079162;28;20041;-45
2022/02/08 03:21:38;;;;;;;10.23;7.28;;;;;;;;;;2080896;28;20099;-45
2022/02/08 03:22:39;;;;;;;9.52;5.20;;;;;;;;;;2080418;28;20128;-44
2022/02/08 03:23:41;;;;;;;10.63;6.72;;;;;;;;;;2080597;28;20125;-44
2022/02/08 03:24:42;;;;;;;8.35;5.05;;;;;;;;;;2080893;28;20152;-45
2022/02/08 03:25:44;;;;;;;9.68;6.65;;;;;;;;;;2078610;28;20041;-45
2022/02/08 03:26:45;;;;;;;8.85;5.00;;;;;;;;;;2079816;28;20049;-45
2022/02/08 03:27:46;;;;;;;8.13;5.05;;;;;;;;;;2080741;28;20053;-45
2022/02/08 03:28:47;;;;;;;10.77;6.63;;;;;;;;;;2079530;28;20118;-45
2022/02/08 03:29:48;;;;;;;11.77;6.57;;;;;;;;;;2080890;28;20133;-44
2022/02/08 03:30:49;;;;;;;8.73;4.95;;;;;;;;;;2080615;28;20287;-45
2022/02/08 03:31:50;;;;;;;9.07;5.43;;;;;;;;;;2079491;28;20124;-44
2022/02/08 03:32:51;;;;;;;9.27;6.28;;;;;;;;;;2082086;28;20406;-44
2022/02/08 03:33:52;;;;;;;9.48;5.10;;;;;;;;;;2080099;28;20130;-45
2022/02/08 03:34:53;;;;;;;11.50;6.90;;;;;;;;;;2081941;28;20103;-45
2022/02/08 03:35:55;;;;;;;8.88;5.40;;;;;;;;;;2082135;28;20132;-44
2022/02/08 03:36:56;;;;;;;10.00;6.50;;;;;;;;;;2081392;28;20073;-45
2022/02/08 03:38:00;;;;;;;8.05;4.85;;;;;;;;;;2080917;28;20589;-44
2022/02/08 03:39:13;;;;;;;11.98;6.85;;;;;;;;;;2082451;28;20072;-45
2022/02/08 03:40:25;;;;;;;12.70;6.28;;;;;;;;;;2079952;28;20128;-46
2022/02/08 03:41:29;;;;;;;10.15;5.22;;;;;;;;;;2082216;28;20053;-45
2022/02/08 03:42:37;;;;;;;10.15;5.53;;;;;;;;;;2081256;28;20380;-58
2022/02/08 03:43:41;;;;;;;8.63;6.03;;;;;;;;;;2081286;28;20056;-58
2022/02/08 03:44:46;;;;;;;10.93;6.07;;;;;;;;;;2082062;28;20503;-58
2022/02/08 03:45:50;;;;;;;9.00;6.03;;;;;;;;;;2080886;28;20120;-58
2022/02/08 03:46:51;;;;;;;12.60;6.00;;;;;;;;;;2082065;28;20138;-58
2022/02/08 03:47:53;;;;;;;10.27;6.07;;;;;;;;;;2081630;28;20056;-58
2022/02/08 03:48:54;;;;;;;8.60;4.40;;;;;;;;;;2081330;28;20137;-58
2022/02/08 03:49:55;;;;;;;9.43;5.80;;;;;;;;;;2082170;28;20132;-59
2022/02/08 03:51:05;;;;;;;15.55;6.25;;;;;;;;;;2081248;28;20325;-58
2022/02/08 03:52:07;;;;;;;10.18;6.72;;;;;;;;;;2081783;28;20187;-59
2022/02/08 03:53:08;;;;;;;11.10;6.07;;;;;;;;;;2082228;28;20072;-58
2022/02/08 03:54:09;;;;;;;8.35;5.10;;;;;;;;;;2079755;28;20766;-58
2022/02/08 03:55:11;;;;;;;12.00;5.70;;;;;;;;;;2082116;28;20080;-59
2022/02/08 03:56:13;;;;;;;9.75;6.03;;;;;;;;;;2082053;28;20077;-59
2022/02/08 03:57:14;;;;;;;;;;;;;;;;;;2080264;28;20129;-59
2022/02/08 03:58:15;;;;;;;6.85;4.35;;;;;;;;;;2081946;28;19921;-58
2022/02/08 03:59:17;;;;;;;7.55;4.97;;;;;;;;;;2080961;28;20091;-59
2022/02/08 04:00:19;;;;;;;8.27;5.32;;;;;;;;;;2080909;28;20095;-59
2022/02/08 04:01:44;;;;;;;9.45;5.75;;;;;;;;;;2081914;28;20045;-59
2022/02/08 04:02:48;;;;;;;6.50;3.92;;;;;;;;;;2079544;28;20041;-59
2022/02/08 04:04:07;;;;;;;8.63;5.40;;;;;;;;;;2082130;28;20077;-59
2022/02/08 04:05:17;;;;;;;6.70;4.20;;;;;;;;;;2081343;28;20124;-58
2022/02/08 04:06:18;;;;;;;7.88;5.05;;;;;;;;;;2080900;28;20053;-58
2022/02/08 04:07:23;;;;;;;7.47;4.10;;;;;;;;;;2081972;28;20436;-58
2022/02/08 04:08:25;;;;;;;9.43;5.88;;;;;;;;;;2080824;28;20402;-58
2022/02/08 04:09:27;;;;;;;10.33;4.70;;;;;;;;;;2081978;28;20057;-59
2022/02/08 04:10:29;;;;;;;6.75;5.13;;;;;;;;;;2082170;28;20336;-58
2022/02/08 04:11:36;;;;;;;7.55;4.70;;;;;;;;;;2079623;28;20166;-58
2022/02/08 04:12:45;;;;;;;8.68;6.13;;;;;;;;;;2082168;28;20606;-59
2022/02/08 04:13:55;;;;;;;11.38;6.30;;;;;;;;;;2081452;28;20172;-46
2022/02/08 04:15:12;;;;;;;14.88;7.50;;;;;;;;;;2080965;28;20435;-44
2022/02/08 04:16:25;;;;;;;11.80;5.82;;;;;;;;;;2081260;28;20668;-46
2022/02/08 04:17:37;;;;;;;8.80;5.65;;;;;;;;;;2081190;28;20045;-44
2022/02/08 04:18:56;;;;;;;10.48;7.60;;;;;;;;;;2082214;28;20317;-45
2022/02/08 04:31:23;;;;;;;12.73;5.93;;;;;;;;;;2079689;28;20087;-45
2022/02/08 04:31:36;;;;;;;8.25;4.40;;;;;;;;;;2079497;28;20132;-58
2022/02/08 04:32:57;;;;;;;8.77;4.50;;;;;;;;;;2081832;28;20446;-58
2022/02/08 04:34:19;;;;;;;10.15;5.18;;;;;;;;;;2080777;28;20088;-59
2022/02/08 04:35:46;;;;;;;9.10;4.75;;;;;;;;;;2082296;28;20077;-45
2022/02/08 04:37:30;;;;;;;7.85;5.10;;;;;;;;;;2079348;28;20139;-45
2022/02/08 04:38:42;;;;;;;7.90;4.65;;;;;;;;;;2081785;28;20132;-46
2022/02/08 04:39:57;;;;;;;8.35;6.30;;;;;;;;;;2080697;28;20495;-45
2022/02/08 04:41:04;;;;;;;8.57;5.40;;;;;;;;;;2081650;28;20187;-45
2022/02/08 04:42:11;;;;;;;9.00;6.35;;;;;;;;;;2081152;28;20136;-59
2022/02/08 04:43:29;;;;;;;9.10;5.25;;;;;;;;;;2080932;28;20136;-59
2022/02/08 04:44:38;;;;;;;13.05;6.00;;;;;;;;;;2081263;28;20045;-58
2022/02/08 04:45:45;;;;;;;7.78;5.03;;;;;;;;;;2080938;28;20482;-58
2022/02/08 04:46:54;;;;;;;9.88;6.47;;;;;;;;;;2081943;28;20053;-58
2022/02/08 04:48:04;;;;;;;12.57;4.63;;;;;;;;;;2079728;28;20183;-45
2022/02/08 04:49:06;;;;;;;9.77;5.50;;;;;;;;;;2073509;28;20077;-45
2022/02/08 04:50:08;;;;;;;8.75;5.05;;;;;;;;;;2073607;28;20132;-45
2022/02/08 04:51:15;;;;;;;;;;;;;;;;;;2079625;28;20049;-45
2022/02/08 04:52:17;;;;;;;6.68;4.43;;;;;;;;;;2081600;28;20016;-45
2022/02/08 04:53:30;;;;;;;8.00;6.07;;;;;;;;;;2081289;28;20100;-58
2022/02/08 04:54:39;;;;;;;7.13;4.10;;;;;;;;;;2081523;28;20095;-58
2022/02/08 04:55:48;;;;;;;8.48;5.68;;;;;;;;;;2081969;28;20054;-45
2022/02/08 04:57:05;;;;;;;9.23;4.93;;;;;;;;;;2080699;28;20132;-48
2022/02/08 04:58:19;;;;;;;8.40;5.32;;;;;;;;;;2081931;28;20124;-48
2022/02/08 04:59:35;;;;;;;8.10;4.68;;;;;;;;;;2079312;28;20518;-58
2022/02/08 05:00:42;;;;;;;7.85;4.40;;;;;;;;;;2081538;28;20132;-45
2022/02/08 05:02:02;;;;;;;9.77;5.50;;;;;;;;;;2080896;28;20045;-45
2022/02/08 05:34:08;;;;;;;5.78;3.58;;;;;;;;;;2081557;28;20136;-44
2022/02/08 05:34:17;;;;;;;8.70;4.10;;;;;;;;;;2080271;28;20140;-45
2022/02/08 05:35:38;;;;;;;10.02;4.03;;;;;;;;;;2081563;28;20140;-58
2022/02/08 05:37:17;;;;;;;7.45;4.13;;;;;;;;;;2080770;28;20140;-57
2022/02/08 05:42:32;;;;;;;6.53;4.15;;;;;;;;;;2056757;28;20046;-57
2022/02/08 05:43:48;;;;;;;9.05;4.78;;;;;;;;;;2073220;28;20550;-58
2022/02/08 05:44:56;;;;;;;7.18;4.10;;;;;;;;;;2078884;28;20049;-58
2022/02/08 05:46:15;;;;;;;8.25;4.32;;;;;;;;;;2081275;28;20549;-58
2022/02/08 05:47:16;;;;;;;6.10;4.15;;;;;;;;;;2079339;28;20093;-58
2022/02/08 05:48:23;;;;;;;7.18;4.00;;;;;;;;;;2080086;28;20042;-57
2022/02/08 05:49:28;;;;;;;9.25;5.32;;;;;;;;;;2081333;28;20049;-58
2022/02/08 05:50:40;;;;;;;8.50;4.15;;;;;;;;;;2079121;28;20490;-58
2022/02/08 05:51:57;;;;;;;7.90;3.55;;;;;;;;;;2081338;28;20053;-58
2022/02/08 05:53:06;;;;;;;10.90;5.35;;;;;;;;;;2080566;28;20447;-58
2022/02/08 05:54:06;;;;;;;6.55;3.88;;;;;;;;;;2081217;28;20081;-58
2022/02/08 05:55:08;;;;;;;7.90;5.30;;;;;;;;;;2081227;28;20045;-57
2022/02/08 05:56:10;;;;;;;7.00;4.03;;;;;;;;;;2080177;28;20103;-57
2022/02/08 05:57:11;;;;;;;8.65;4.60;;;;;;;;;;2081423;28;20081;-58
2022/02/08 05:58:12;;;;;;;8.40;4.05;;;;;;;;;;2080782;28;20041;-58
2022/02/08 05:59:13;;;;;;;9.43;5.28;;;;;;;;;;2080596;28;20073;-58
2022/02/08 06:00:15;;;;;;;6.70;3.90;;;;;;;;;;2081244;28;20045;-59
2022/02/08 06:01:16;;;;;;;8.90;5.30;;;;;;;;;;2081044;28;20132;-58
2022/02/08 06:02:18;;;;;;;8.30;5.00;;;;;;;;;;2080450;28;20462;-58
2022/02/08 06:03:21;;;;;;;11.57;5.80;;;;;;;;;;2081414;28;20049;-45
2022/02/08 06:04:22;;;;;;;8.02;4.15;;;;;;;;;;2079020;28;20132;-44
2022/02/08 06:05:24;;;;;;;7.55;4.70;;;;;;;;;;2081186;28;20049;-44
2022/02/08 06:06:25;;;;;;;8.40;5.30;;;;;;;;;;2081031;28;20132;-44
2022/02/08 06:07:27;;;;;;;8.38;4.88;;;;;;;;;;2078737;28;20143;-45
2022/02/08 06:08:29;;;;;;;9.27;5.32;;;;;;;;;;2081296;28;20052;-45
2022/02/08 06:09:30;;;;;;;8.33;4.07;;;;;;;;;;2081041;28;20041;-45
2022/02/08 06:10:32;;;;;;;9.13;4.95;;;;;;;;;;2078743;28;20465;-45
2022/02/08 06:11:37;;;;;;;;;;;;;;;;;;2081561;28;20080;-46
2022/02/08 06:12:45;;;;;;;9.75;4.28;;;;;;;;;;2080772;28;20060;-44
2022/02/08 06:13:50;;;;;;;9.23;4.55;;;;;;;;;;2080553;28;20137;-45
2022/02/08 06:14:57;;;;;;;9.48;5.70;;;;;;;;;;2081589;28;20063;-58
2022/02/08 06:16:02;;;;;;;13.85;6.15;;;;;;;;;;2078584;28;20470;-58
2022/02/08 06:17:03;;;;;;;9.73;6.03;;;;;;;;;;2081340;28;20080;-58
2022/02/08 06:18:04;;;;;;;7.70;3.88;;;;;;;;;;2080253;28;20050;-58
2022/02/08 06:19:06;;;;;;;7.78;4.50;;;;;;;;;;2079744;28;20048;-58
2022/02/08 06:20:08;;;;;;;11.10;5.43;;;;;;;;;;2081048;28;20064;-58
2022/02/08 06:21:10;;;;;;;9.88;4.70;;;;;;;;;;2079073;28;20128;-58
2022/02/08 06:22:11;;;;;;;10.77;5.47;;;;;;;;;;2079959;28;20132;-58
2022/02/08 06:23:13;;;;;;;8.45;4.13;;;;;;;;;;2081353;28;20049;-58
2022/02/08 06:24:15;;;;;;;10.38;4.78;;;;;;;;;;2078847;28;20491;-57
2022/02/08 06:25:17;;;;;;;9.95;5.28;;;;;;;;;;2079897;28;20076;-57
2022/02/08 06:26:20;;;;;;;11.95;5.05;;;;;;;;;;2081378;28;20080;-46
2022/02/08 06:27:28;;;;;;;12.05;5.80;;;;;;;;;;2078597;28;20049;-45
2022/02/08 06:28:30;;;;;;;10.77;5.68;;;;;;;;;;2081138;28;20053;-44
2022/02/08 06:29:31;;;;;;;8.68;4.80;;;;;;;;;;2080544;28;20183;-44
2022/02/08 06:30:33;;;;;;;12.65;5.95;;;;;;;;;;2079773;28;20119;-44
2022/02/08 06:31:34;;;;;;;12.35;5.85;;;;;;;;;;2081274;28;20057;-44
2022/02/08 06:32:36;;;;;;;10.63;6.82;;;;;;;;;;2080490;28;20410;-58
2022/02/08 06:33:37;;;;;;;10.07;5.88;;;;;;;;;;2080642;28;20072;-57
2022/02/08 06:34:38;;;;;;;8.48;5.07;;;;;;;;;;2081084;28;20136;-58
2022/02/08 06:35:39;;;;;;;8.70;5.45;;;;;;;;;;2078648;28;20136;-58
2022/02/08 06:36:41;;;;;;;11.10;4.70;;;;;;;;;;2080968;28;20402;-58
2022/02/08 06:37:43;;;;;;;8.95;5.65;;;;;;;;;;2081048;28;20176;-58
2022/02/08 06:38:44;;;;;;;9.50;4.63;;;;;;;;;;2079779;28;20132;-58
2022/02/08 06:39:45;;;;;;;8.32;5.00;;;;;;;;;;2081342;28;20132;-58
2022/02/08 06:40:50;;;;;;;9.20;5.20;;;;;;;;;;2080483;28;20056;-58
2022/02/08 06:41:51;;;;;;;9.73;5.55;;;;;;;;;;2080223;28;20045;-58
2022/02/08 06:42:56;;;;;;;10.20;5.25;;;;;;;;;;2081060;28;20069;-45
2022/02/08 06:43:57;;;;;;;11.70;6.18;;;;;;;;;;2080129;28;20414;-45
2022/02/08 06:44:58;;;;;;;10.13;5.72;;;;;;;;;;2080818;28;20049;-45
2022/02/08 06:46:00;;;;;;;11.10;5.75;;;;;;;;;;2080879;28;20478;-45
2022/02/08 06:47:01;;;;;;;;;;;;;;;;;;2080628;28;20041;-57
2022/02/08 06:48:04;;;;;;;9.50;4.80;;;;;;;;;;2080830;28;19928;-58
2022/02/08 06:49:05;;;;;;;10.45;5.82;;;;;;;;;;2080685;28;20522;-58
2022/02/08 06:50:07;;;;;;;11.20;5.50;;;;;;;;;;2079855;28;20096;-58
2022/02/08 06:51:08;;;;;;;10.73;6.30;;;;;;;;;;2080985;28;20279;-58
2022/02/08 06:52:09;;;;;;;9.90;4.60;;;;;;;;;;2079433;28;20053;-58
2022/02/08 06:53:11;;;;;;;11.30;6.22;;;;;;;;;;2080025;28;20080;-58
2022/02/08 06:54:11;;;;;;;9.63;5.30;;;;;;;;;;2080918;28;20068;-58
2022/02/08 06:55:13;;;;;;;11.02;5.32;;;;;;;;;;2080164;28;20167;-58
2022/02/08 06:56:14;;;;;;;9.02;4.80;;;;;;;;;;2080492;28;20072;-58
2022/02/08 06:57:15;;;;;;;8.20;5.32;;;;;;;;;;2080969;28;20107;-58
2022/02/08 06:58:18;;;;;;;9.30;4.13;;;;;;;;;;2078415;28;20088;-58
2022/02/08 06:59:20;;;;;;;9.20;4.53;;;;;;;;;;2080791;28;20577;-58
2022/02/08 07:00:24;;;;;;;8.57;5.00;;;;;;;;;;2080995;28;20128;-58
2022/02/08 07:01:28;;;;;;;13.45;5.85;;;;;;;;;;2078100;28;20045;-58
2022/02/08 07:02:29;;;;;;;12.23;5.70;;;;;;;;;;2080962;28;20081;-58
2022/02/08 07:03:31;;;;;;;9.63;4.70;;;;;;;;;;2079309;28;20057;-59
2022/02/08 07:04:32;;;;;;;11.45;5.20;;;;;;;;;;2079705;28;20084;-45
2022/02/08 07:05:33;;;;;;;7.53;4.45;;;;;;;;;;2080814;28;20080;-45
2022/02/08 07:06:34;;;;;;;11.17;4.97;;;;;;;;;;2079724;28;20049;-45
2022/02/08 07:07:37;;;;;;;10.70;5.13;;;;;;;;;;2080025;28;20764;-45
2022/02/08 07:08:39;;;;;;;10.05;5.10;;;;;;;;;;2080938;28;20136;-45
2022/02/08 07:09:40;;;;;;;9.05;5.28;;;;;;;;;;2079778;28;20677;-45
2022/02/08 07:10:42;;;;;;;9.05;4.22;;;;;;;;;;2080842;28;20085;-45
2022/02/08 07:11:46;;;;;;;8.10;3.97;;;;;;;;;;2080830;28;20084;-47
2022/02/08 07:12:48;;;;;;;7.88;4.55;;;;;;;;;;2078541;28;20046;-45
2022/02/08 07:13:49;;;;;;;7.00;4.13;;;;;;;;;;2080878;28;20077;-46
2022/02/08 07:14:51;;;;;;;8.80;5.03;;;;;;;;;;2080370;28;20523;-45
2022/02/08 07:15:52;;;;;;;9.25;4.82;;;;;;;;;;2079200;28;20049;-45
2022/02/08 07:16:53;;;;;;;8.75;4.32;;;;;;;;;;2081227;28;20467;-58
2022/02/08 07:17:54;;;;;;;7.30;4.60;;;;;;;;;;2079883;28;20041;-58
2022/02/08 07:18:55;;;;;;;8.05;3.97;;;;;;;;;;2080462;28;20069;-58
2022/02/08 07:19:56;;;;;;;8.40;4.63;;;;;;;;;;2081428;28;20080;-44
2022/02/08 07:20:57;;;;;;;7.47;4.43;;;;;;;;;;2079627;28;20072;-47
2022/02/08 07:21:58;;;;;;;8.50;4.82;;;;;;;;;;2080547;28;20282;-46
2022/02/08 07:23:00;;;;;;;6.47;3.70;;;;;;;;;;2080876;28;20099;-45